createdAt,value
2022-12-03T00:02:15.896Z,100635.97
2022-12-03T00:04:42.784Z,100648.75
2022-12-03T00:07:09.516Z,100647.91
2022-12-03T00:09:36.191Z,100635.09
2022-12-03T00:12:02.958Z,100638.50
2022-12-03T00:14:29.671Z,100646.19
2022-12-03T00:16:56.475Z,100625.75
2022-12-03T00:19:23.168Z,100649.56
2022-12-03T00:21:49.871Z,100616.38
2022-12-03T00:24:16.664Z,100595.06
2022-12-03T00:26:43.424Z,100647.88
2022-12-03T00:29:11.394Z,100648.75
2022-12-03T00:31:38.128Z,100642.75
2022-12-03T00:34:04.946Z,100662.34
2022-12-03T00:36:31.720Z,100635.94
2022-12-03T00:38:58.549Z,100630.84
2022-12-03T00:41:25.272Z,100642.78
2022-12-03T00:43:52.023Z,100641.94
2022-12-03T00:46:21.553Z,100650.41
2022-12-03T00:48:48.689Z,100639.38
2022-12-03T00:51:15.475Z,100645.34
2022-12-03T00:53:42.211Z,100630.84
2022-12-03T00:56:09.195Z,100630.84
2022-12-03T00:58:35.967Z,100629.16
2022-12-03T01:01:02.809Z,100624.91
2022-12-03T01:03:29.691Z,100645.34
2022-12-03T01:05:56.492Z,100639.34
2022-12-03T01:08:23.196Z,100638.50
2022-12-03T01:10:49.996Z,100644.47
2022-12-03T01:13:16.732Z,100613.84
2022-12-03T01:15:43.605Z,100643.66
2022-12-03T01:18:10.393Z,100624.91
2022-12-03T01:20:38.650Z,100654.72
2022-12-03T01:23:05.913Z,100641.06
2022-12-03T01:25:32.664Z,100641.91
2022-12-03T01:27:59.408Z,100638.53
2022-12-03T01:30:26.140Z,100631.72
2022-12-03T01:32:52.946Z,100647.88
2022-12-03T01:35:19.787Z,100634.25
2022-12-03T01:37:46.464Z,100634.28
2022-12-03T01:40:22.792Z,100636.81
2022-12-03T01:42:49.548Z,100656.41
2022-12-03T01:45:23.824Z,100622.34
2022-12-03T01:47:51.067Z,100655.53
2022-12-03T01:50:33.368Z,100662.34
2022-12-03T01:53:03.224Z,100647.88
2022-12-03T01:55:30.130Z,100567.84
2022-12-03T01:58:00.911Z,100649.56
2022-12-03T02:00:28.929Z,100660.66
2022-12-03T02:02:58.169Z,100664.06
2022-12-03T02:05:28.569Z,100667.47
2022-12-03T02:07:55.635Z,100658.94
2022-12-03T02:10:31.036Z,100659.78
2022-12-03T02:13:09.473Z,100664.91
2022-12-03T02:15:38.512Z,100652.13
2022-12-03T02:18:07.240Z,100661.50
2022-12-03T02:20:42.395Z,100663.22
2022-12-03T02:23:13.115Z,100667.47
2022-12-03T02:25:39.991Z,100662.38
2022-12-03T02:28:08.912Z,100660.66
2022-12-03T02:30:36.673Z,100659.81
2022-12-03T02:33:03.474Z,100645.31
2022-12-03T02:35:36.667Z,100655.56
2022-12-03T02:38:21.754Z,100665.75
2022-12-03T02:40:51.947Z,100665.75
2022-12-03T02:43:21.024Z,100652.97
2022-12-03T02:45:52.148Z,100667.44
2022-12-03T02:48:40.153Z,100658.09
2022-12-03T02:51:10.407Z,100669.19
2022-12-03T02:53:44.892Z,100626.59
2022-12-03T02:56:19.825Z,100661.50
2022-12-03T02:58:49.911Z,100662.34
2022-12-03T03:01:17.444Z,100653.00
2022-12-03T03:03:45.878Z,100663.19
2022-12-03T03:06:13.346Z,100666.59
2022-12-03T03:08:42.839Z,100644.47
2022-12-03T03:11:09.833Z,100647.03
2022-12-03T03:13:37.916Z,100664.88
2022-12-03T03:16:07.008Z,100650.41
2022-12-03T03:18:34.634Z,100650.44
2022-12-03T03:21:01.752Z,100646.13
2022-12-03T03:23:28.478Z,100635.09
2022-12-03T03:26:08.914Z,100653.81
2022-12-03T03:28:41.751Z,100640.19
2022-12-03T03:31:11.928Z,100653.81
2022-12-03T03:33:40.914Z,100656.38
2022-12-03T03:36:08.505Z,100651.25
2022-12-03T03:38:36.784Z,100657.22
2022-12-03T03:41:06.111Z,100654.69
2022-12-03T03:43:35.758Z,100649.59
2022-12-03T03:46:05.807Z,100650.44
2022-12-03T03:48:34.671Z,100648.75
2022-12-03T03:51:04.023Z,100652.16
2022-12-03T03:53:31.171Z,100640.22
2022-12-03T03:55:57.946Z,100653.84
2022-12-03T03:58:24.673Z,100649.56
2022-12-03T04:00:52.157Z,100647.00
2022-12-03T04:03:18.997Z,100648.75
2022-12-03T04:05:46.754Z,100641.06
2022-12-03T04:08:13.555Z,100648.72
2022-12-03T04:10:58.759Z,100641.91
2022-12-03T04:13:25.673Z,100646.19
2022-12-03T04:15:52.514Z,100627.44
2022-12-03T04:18:37.871Z,100635.09
2022-12-03T04:21:23.356Z,100635.09
2022-12-03T04:23:50.152Z,100627.44
2022-12-03T04:26:35.271Z,100640.22
2022-12-03T04:29:02.072Z,100634.25
2022-12-03T04:31:48.515Z,100618.09
2022-12-03T04:34:33.907Z,100624.03
2022-12-03T04:37:00.708Z,100637.66
2022-12-03T04:39:27.554Z,100617.22
2022-12-03T04:41:54.306Z,100634.25
2022-12-03T04:44:36.575Z,100629.16
2022-12-03T04:47:15.754Z,100633.41
2022-12-03T04:49:47.704Z,100626.59
2022-12-03T04:52:16.506Z,100621.50
2022-12-03T04:54:43.286Z,100621.47
2022-12-03T04:57:11.205Z,100624.91
2022-12-03T04:59:38.798Z,100589.97
2022-12-03T05:02:07.164Z,100624.88
2022-12-03T05:04:34.440Z,100619.78
2022-12-03T05:07:01.144Z,100629.16
2022-12-03T05:09:27.846Z,100621.50
2022-12-03T05:11:54.833Z,100628.28
2022-12-03T05:14:21.601Z,100630.81
2022-12-03T05:16:48.429Z,100618.94
2022-12-03T05:19:15.355Z,100623.19
2022-12-03T05:21:42.042Z,100607.00
2022-12-03T05:24:08.913Z,100626.59
2022-12-03T05:26:35.666Z,100623.19
2022-12-03T05:29:02.597Z,100619.78
2022-12-03T05:31:29.393Z,100618.94
2022-12-03T05:33:56.266Z,100614.66
2022-12-03T05:36:23.066Z,100614.66
2022-12-03T05:38:49.746Z,100612.13
2022-12-03T05:41:34.947Z,100610.41
2022-12-03T05:44:01.635Z,100616.38
2022-12-03T05:46:28.535Z,100614.66
2022-12-03T05:49:20.106Z,100592.53
2022-12-03T05:51:46.877Z,100607.00
2022-12-03T05:54:13.588Z,100601.91
2022-12-03T05:56:40.308Z,100608.69
2022-12-03T05:59:07.031Z,100611.25
2022-12-03T06:01:34.582Z,100615.50
2022-12-03T06:04:01.352Z,100607.84
2022-12-03T06:06:28.062Z,100604.47
2022-12-03T06:08:54.742Z,100599.34
2022-12-03T06:11:21.473Z,100597.63
2022-12-03T06:13:48.207Z,100614.66
2022-12-03T06:16:15.007Z,100563.63
2022-12-03T06:18:41.755Z,100579.78
2022-12-03T06:21:08.464Z,100595.91
2022-12-03T06:23:35.244Z,100594.25
2022-12-03T06:26:01.966Z,100555.94
2022-12-03T06:28:28.761Z,100576.38
2022-12-03T06:30:55.498Z,100601.91
2022-12-03T06:33:22.240Z,100603.59
2022-12-03T06:35:48.990Z,100595.13
2022-12-03T06:38:15.676Z,100603.63
2022-12-03T06:40:42.431Z,100614.69
2022-12-03T06:43:09.423Z,100597.66
2022-12-03T06:45:36.182Z,100609.56
2022-12-03T06:48:03.102Z,100604.47
2022-12-03T06:50:29.785Z,100584.91
2022-12-03T06:52:56.585Z,100611.28
2022-12-03T06:55:23.310Z,100622.31
2022-12-03T06:57:50.225Z,100618.09
2022-12-03T07:00:17.183Z,100618.94
2022-12-03T07:02:44.827Z,100630.00
2022-12-03T07:05:11.586Z,100609.56
2022-12-03T07:07:38.397Z,100619.81
2022-12-03T07:10:05.902Z,100621.47
2022-12-03T07:12:32.977Z,100614.69
2022-12-03T07:14:59.725Z,100620.63
2022-12-03T07:17:26.392Z,100636.81
2022-12-03T07:19:53.077Z,100630.84
2022-12-03T07:22:19.831Z,100635.97
2022-12-03T07:24:46.508Z,100629.16
2022-12-03T07:27:13.309Z,100636.81
2022-12-03T07:29:39.989Z,100630.88
2022-12-03T07:32:06.708Z,100630.00
2022-12-03T07:34:33.475Z,100630.88
2022-12-03T07:37:00.190Z,100633.41
2022-12-03T07:39:26.952Z,100640.25
2022-12-03T07:41:53.742Z,100627.44
2022-12-03T07:44:20.510Z,100634.25
2022-12-03T07:46:47.298Z,100631.72
2022-12-03T07:49:14.270Z,100622.31
2022-12-03T07:51:41.039Z,100631.72
2022-12-03T07:54:07.782Z,100624.91
2022-12-03T07:56:34.833Z,100627.44
2022-12-03T07:59:01.502Z,100624.91
2022-12-03T08:01:28.285Z,100624.91
2022-12-03T08:03:55.157Z,100616.41
2022-12-03T08:06:21.951Z,100635.13
2022-12-03T08:08:48.625Z,100629.16
2022-12-03T08:11:15.626Z,100625.75
2022-12-03T08:13:42.675Z,100628.28
2022-12-03T08:16:16.206Z,100631.69
2022-12-03T08:18:43.406Z,100636.78
2022-12-03T08:21:12.952Z,100630.00
2022-12-03T08:23:40.240Z,100630.00
2022-12-03T08:26:24.394Z,100635.94
2022-12-03T08:28:52.675Z,100629.09
2022-12-03T08:31:32.714Z,100626.56
2022-12-03T08:34:21.629Z,100623.97
2022-12-03T08:36:52.271Z,100628.25
2022-12-03T08:39:29.351Z,100618.88
2022-12-03T08:42:23.752Z,100607.84
2022-12-03T08:44:50.469Z,100614.69
2022-12-03T08:47:21.227Z,100611.25
2022-12-03T08:49:58.278Z,100613.81
2022-12-03T08:52:31.917Z,100618.06
2022-12-03T08:55:00.263Z,100608.69
2022-12-03T08:57:32.304Z,100612.06
2022-12-03T09:00:04.190Z,100615.50
2022-12-03T09:02:34.909Z,100613.78
2022-12-03T09:05:29.586Z,100620.59
2022-12-03T09:07:56.333Z,100607.84
2022-12-03T09:10:23.112Z,100618.88
2022-12-03T09:12:50.068Z,100608.66
2022-12-03T09:15:16.831Z,100629.13
2022-12-03T09:17:43.485Z,100625.69
2022-12-03T09:20:10.588Z,100623.91
2022-12-03T09:22:37.316Z,100624.00
2022-12-03T09:25:04.414Z,100614.63
2022-12-03T09:27:31.105Z,100623.94
2022-12-03T09:29:58.029Z,100628.97
2022-12-03T09:32:24.884Z,100623.00
2022-12-03T09:34:52.137Z,100633.31
2022-12-03T09:37:19.195Z,100617.91
2022-12-03T09:39:46.112Z,100618.78
2022-12-03T09:42:13.036Z,100605.97
2022-12-03T09:44:39.890Z,100593.19
2022-12-03T09:47:07.686Z,100617.03
2022-12-03T09:49:37.272Z,100601.72
2022-12-03T09:52:06.276Z,100611.06
2022-12-03T09:54:33.884Z,100599.09
2022-12-03T09:57:03.782Z,100588.84
2022-12-03T09:59:33.445Z,100594.84
2022-12-03T10:02:01.150Z,100596.41
2022-12-03T10:04:28.971Z,100590.38
2022-12-03T10:06:58.384Z,100591.16
2022-12-03T10:09:28.065Z,100593.59
2022-12-03T10:11:56.663Z,100590.13
2022-12-03T10:14:23.851Z,100591.94
2022-12-03T10:16:50.879Z,100589.25
2022-12-03T10:19:27.964Z,100583.28
2022-12-03T10:21:55.840Z,100571.41
2022-12-03T10:24:29.965Z,100579.09
2022-12-03T10:26:59.106Z,100572.97
2022-12-03T10:29:33.573Z,100560.34
2022-12-03T10:32:03.531Z,100563.59
2022-12-03T10:34:33.502Z,100562.72
2022-12-03T10:37:17.233Z,100556.22
2022-12-03T10:39:56.024Z,100554.25
2022-12-03T10:42:24.645Z,100554.91
2022-12-03T10:45:15.675Z,100524.66
2022-12-03T10:47:44.576Z,100539.03
2022-12-03T10:50:17.857Z,100538.16
2022-12-03T10:52:45.477Z,100532.06
2022-12-03T10:55:14.431Z,100528.72
2022-12-03T10:57:45.593Z,100530.28
2022-12-03T11:00:18.657Z,100531.31
2022-12-03T11:02:53.077Z,100526.28
2022-12-03T11:05:27.596Z,100525.09
2022-12-03T11:07:54.942Z,100522.66
2022-12-03T11:10:22.064Z,100516.00
2022-12-03T11:13:26.968Z,100523.59
2022-12-03T11:15:54.061Z,100519.97
2022-12-03T11:18:36.144Z,100514.19
2022-12-03T11:21:02.945Z,100510.72
2022-12-03T11:23:44.800Z,100508.09
2022-12-03T11:26:19.459Z,100505.47
2022-12-03T11:28:46.612Z,100507.16
2022-12-03T11:31:46.862Z,100502.84
2022-12-03T11:34:22.744Z,100497.94
2022-12-03T11:37:28.264Z,100496.16
2022-12-03T11:39:55.995Z,100497.81
2022-12-03T11:42:28.675Z,100502.56
2022-12-03T11:45:27.553Z,100496.69
2022-12-03T11:48:02.477Z,100491.97
2022-12-03T11:50:39.339Z,100484.25
2022-12-03T11:53:27.037Z,100487.47
2022-12-03T11:56:09.291Z,100477.91
2022-12-03T11:58:38.914Z,100482.31
2022-12-03T12:01:07.356Z,100479.63
2022-12-03T12:03:42.660Z,100472.13
2022-12-03T12:06:16.206Z,100472.72
2022-12-03T12:08:52.127Z,100471.66
2022-12-03T12:11:34.038Z,100470.03
2022-12-03T12:14:12.841Z,100463.19
2022-12-03T12:16:51.804Z,100464.19
2022-12-03T12:19:37.420Z,100460.19
2022-12-03T12:22:25.524Z,100457.44
2022-12-03T12:24:54.585Z,100441.31
2022-12-03T12:27:47.304Z,100443.72
2022-12-03T12:30:22.349Z,100446.44
2022-12-03T12:32:52.102Z,100435.31
2022-12-03T12:35:31.115Z,100439.00
2022-12-03T12:38:00.218Z,100443.09
2022-12-03T12:40:30.191Z,100396.34
2022-12-03T12:43:00.103Z,100430.22
2022-12-03T12:45:30.144Z,100433.59
2022-12-03T12:48:08.142Z,100431.88
2022-12-03T12:50:35.063Z,100415.00
2022-12-03T12:53:11.583Z,100427.81
2022-12-03T12:55:39.169Z,100427.56
2022-12-03T12:58:15.751Z,100410.44
2022-12-03T13:00:43.066Z,100422.53
2022-12-03T13:03:14.551Z,100422.50
2022-12-03T13:05:47.169Z,100422.19
2022-12-03T13:08:30.825Z,100421.28
2022-12-03T13:11:00.046Z,100400.97
2022-12-03T13:13:44.002Z,100422.28
2022-12-03T13:16:28.187Z,100417.19
2022-12-03T13:19:00.354Z,100417.00
2022-12-03T13:21:40.714Z,100412.16
2022-12-03T13:24:29.034Z,100404.44
2022-12-03T13:26:56.471Z,100406.25
2022-12-03T13:29:24.111Z,100401.28
2022-12-03T13:31:59.968Z,100401.97
2022-12-03T13:34:31.872Z,100398.84
2022-12-03T13:37:01.789Z,100386.13
2022-12-03T13:39:35.200Z,100404.00
2022-12-03T13:42:42.132Z,100400.50
2022-12-03T13:45:15.031Z,100403.19
2022-12-03T13:47:44.311Z,100396.91
2022-12-03T13:50:22.273Z,100364.66
2022-12-03T13:52:49.311Z,100394.75
2022-12-03T13:55:24.992Z,100380.13
2022-12-03T13:57:51.744Z,100386.75
2022-12-03T14:00:33.513Z,100388.63
2022-12-03T14:03:00.506Z,100396.28
2022-12-03T14:05:27.182Z,100387.75
2022-12-03T14:07:53.932Z,100385.00
2022-12-03T14:10:20.704Z,100383.34
2022-12-03T14:12:47.486Z,100381.88
2022-12-03T14:15:14.235Z,100380.88
2022-12-03T14:17:40.943Z,100377.50
2022-12-03T14:20:08.512Z,100377.41
2022-12-03T14:22:38.132Z,100368.22
2022-12-03T14:25:06.366Z,100389.44
2022-12-03T14:27:33.469Z,100385.88
2022-12-03T14:30:00.329Z,100397.06
2022-12-03T14:32:27.102Z,100395.22
2022-12-03T14:34:53.951Z,100382.69
2022-12-03T14:37:20.834Z,100411.69
2022-12-03T14:39:47.663Z,100409.19
2022-12-03T14:42:14.599Z,100402.28
2022-12-03T14:44:45.231Z,100408.22
2022-12-03T14:47:13.555Z,100411.69
2022-12-03T14:49:40.664Z,100394.75
2022-12-03T14:52:11.961Z,100402.44
2022-12-03T14:54:39.785Z,100390.44
2022-12-03T14:57:06.510Z,100404.03
2022-12-03T14:59:33.228Z,100381.19
2022-12-03T15:02:00.043Z,100400.75
2022-12-03T15:04:26.911Z,100411.69
2022-12-03T15:06:53.669Z,100395.44
2022-12-03T15:09:20.605Z,100390.47
2022-12-03T15:11:47.310Z,100395.50
2022-12-03T15:14:14.526Z,100400.56
2022-12-03T15:16:42.138Z,100393.09
2022-12-03T15:19:08.985Z,100401.56
2022-12-03T15:21:35.804Z,100393.13
2022-12-03T15:24:03.128Z,100395.59
2022-12-03T15:26:30.356Z,100396.34
2022-12-03T15:28:57.153Z,100391.38
2022-12-03T15:31:24.020Z,100403.25
2022-12-03T15:33:50.884Z,100401.50
2022-12-03T15:36:17.863Z,100401.50
2022-12-03T15:38:44.549Z,100394.56
2022-12-03T15:41:31.407Z,100365.81
2022-12-03T15:44:01.615Z,100397.25
2022-12-03T15:46:28.923Z,100387.97
2022-12-03T15:48:56.072Z,100401.47
2022-12-03T15:51:23.392Z,100397.28
2022-12-03T15:53:50.386Z,100398.13
2022-12-03T15:56:17.115Z,100389.63
2022-12-03T15:58:43.960Z,100381.03
2022-12-03T16:01:13.476Z,100392.13
2022-12-03T16:03:40.590Z,100393.84
2022-12-03T16:06:07.662Z,100399.03
2022-12-03T16:08:34.475Z,100391.41
2022-12-03T16:11:01.195Z,100397.31
2022-12-03T16:13:27.982Z,100395.63
2022-12-03T16:15:54.862Z,100393.91
2022-12-03T16:18:21.712Z,100400.78
2022-12-03T16:20:48.424Z,100406.78
2022-12-03T16:23:15.184Z,100407.53
2022-12-03T16:25:42.024Z,100403.34
2022-12-03T16:28:08.785Z,100399.13
2022-12-03T16:30:36.390Z,100401.69
2022-12-03T16:33:03.272Z,100378.81
2022-12-03T16:35:29.968Z,100392.41
2022-12-03T16:37:56.673Z,100398.34
2022-12-03T16:40:23.395Z,100402.59
2022-12-03T16:42:50.118Z,100393.22
2022-12-03T16:45:33.520Z,100391.50
2022-12-03T16:48:01.670Z,100398.28
2022-12-03T16:50:30.161Z,100396.59
2022-12-03T16:52:57.760Z,100388.09
2022-12-03T16:55:25.005Z,100388.03
2022-12-03T16:57:51.751Z,100347.25
2022-12-03T17:00:18.744Z,100394.84
2022-12-03T17:02:45.603Z,100383.78
2022-12-03T17:05:12.550Z,100383.81
2022-12-03T17:07:39.490Z,100385.59
2022-12-03T17:10:06.982Z,100383.00
2022-12-03T17:13:01.116Z,100383.84
2022-12-03T17:15:20.385Z,100387.28
2022-12-03T17:17:47.199Z,100383.00
2022-12-03T17:20:14.868Z,100377.03
2022-12-03T17:22:42.033Z,100380.47
2022-12-03T17:25:09.862Z,100383.09
2022-12-03T17:27:40.796Z,100379.63
2022-12-03T17:30:11.862Z,100377.09
2022-12-03T17:32:38.591Z,100369.44
2022-12-03T17:35:05.631Z,100373.72
2022-12-03T17:37:32.285Z,100373.72
2022-12-03T17:39:59.152Z,100371.13
2022-12-03T17:42:26.006Z,100371.13
2022-12-03T17:44:53.115Z,100371.94
2022-12-03T17:47:19.927Z,100369.38
2022-12-03T17:49:46.727Z,100363.47
2022-12-03T17:52:13.549Z,100359.22
2022-12-03T17:55:02.359Z,100355.88
2022-12-03T17:57:26.991Z,100361.81
2022-12-03T17:59:53.956Z,100354.94
2022-12-03T18:02:20.834Z,100351.50
2022-12-03T18:04:47.633Z,100351.56
2022-12-03T18:07:14.395Z,100355.88
2022-12-03T18:09:41.112Z,100350.75
2022-12-03T18:12:07.957Z,100354.13
2022-12-03T18:14:34.692Z,100355.84
2022-12-03T18:17:01.464Z,100360.13
2022-12-03T18:19:28.145Z,100352.47
2022-12-03T18:21:55.306Z,100359.31
2022-12-03T18:24:22.346Z,100354.28
2022-12-03T18:26:50.315Z,100362.78
2022-12-03T18:29:17.235Z,100355.94
2022-12-03T18:31:44.070Z,100345.69
2022-12-03T18:34:10.862Z,100353.31
2022-12-03T18:36:37.822Z,100356.72
2022-12-03T18:39:08.910Z,100357.59
2022-12-03T18:41:36.468Z,100364.41
2022-12-03T18:44:06.831Z,100360.16
2022-12-03T18:46:53.110Z,100356.69
2022-12-03T18:49:21.046Z,100353.31
2022-12-03T18:51:48.607Z,100347.31
2022-12-03T18:54:15.825Z,100356.78
2022-12-03T18:56:42.592Z,100353.38
2022-12-03T18:59:09.809Z,100351.66
2022-12-03T19:01:36.924Z,100349.09
2022-12-03T19:04:04.004Z,100350.00
2022-12-03T19:06:30.831Z,100344.09
2022-12-03T19:08:58.154Z,100358.50
2022-12-03T19:11:25.006Z,100346.59
2022-12-03T19:13:52.199Z,100351.75
2022-12-03T19:16:19.328Z,100347.47
2022-12-03T19:18:46.282Z,100349.13
2022-12-03T19:21:15.785Z,100348.38
2022-12-03T19:24:04.203Z,100333.88
2022-12-03T19:26:30.091Z,100347.41
2022-12-03T19:28:56.946Z,100347.47
2022-12-03T19:31:23.777Z,100345.81
2022-12-03T19:33:51.995Z,100348.38
2022-12-03T19:36:25.665Z,100347.56
2022-12-03T19:38:57.465Z,100349.28
2022-12-03T19:41:27.472Z,100351.81
2022-12-03T19:43:56.265Z,100356.06
2022-12-03T19:46:25.349Z,100348.44
2022-12-03T19:48:53.967Z,100352.72
2022-12-03T19:51:34.243Z,100351.88
2022-12-03T19:54:03.248Z,100339.16
2022-12-03T19:56:30.626Z,100349.34
2022-12-03T19:58:58.047Z,100341.69
2022-12-03T20:01:35.943Z,100346.78
2022-12-03T20:04:03.896Z,100351.84
2022-12-03T20:06:34.205Z,100346.78
2022-12-03T20:09:06.157Z,100350.22
2022-12-03T20:11:33.995Z,100329.84
2022-12-03T20:14:03.156Z,100345.97
2022-12-03T20:16:30.926Z,100344.25
2022-12-03T20:19:01.012Z,100344.25
2022-12-03T20:21:30.886Z,100345.09
2022-12-03T20:23:57.749Z,100325.56
2022-12-03T20:26:25.354Z,100345.13
2022-12-03T20:28:55.745Z,100340.88
2022-12-03T20:31:25.364Z,100331.50
2022-12-03T20:33:54.510Z,100336.59
2022-12-03T20:36:23.064Z,100319.50
2022-12-03T20:38:55.026Z,100320.34
2022-12-03T20:41:22.085Z,100317.81
2022-12-03T20:43:49.946Z,100325.53
2022-12-03T20:46:21.274Z,100322.09
2022-12-03T20:48:48.301Z,100328.09
2022-12-03T20:51:18.430Z,100334.03
2022-12-03T20:53:46.104Z,100329.00
2022-12-03T20:56:34.182Z,100334.13
2022-12-03T20:59:05.015Z,100329.03
2022-12-03T21:01:32.612Z,100338.31
2022-12-03T21:03:59.440Z,100330.69
2022-12-03T21:06:28.110Z,100330.63
2022-12-03T21:08:56.844Z,100300.16
2022-12-03T21:11:26.471Z,100334.94
2022-12-03T21:13:54.678Z,100332.47
2022-12-03T21:16:52.207Z,100312.81
2022-12-03T21:19:20.511Z,100308.56
2022-12-03T21:21:47.436Z,100310.34
2022-12-03T21:24:14.390Z,100318.84
2022-12-03T21:26:41.509Z,100321.41
2022-12-03T21:29:08.837Z,100320.56
2022-12-03T21:31:37.425Z,100291.69
2022-12-03T21:34:05.289Z,100321.41
2022-12-03T21:36:32.305Z,100322.22
2022-12-03T21:38:59.148Z,100314.59
2022-12-03T21:41:26.406Z,100314.59
2022-12-03T21:43:53.104Z,100309.44
2022-12-03T21:47:10.049Z,100311.13
2022-12-03T21:49:06.905Z,100298.50
2022-12-03T21:51:33.682Z,100318.94
2022-12-03T21:54:00.503Z,100311.28
2022-12-03T21:56:27.274Z,100308.75
2022-12-03T21:58:54.958Z,100308.72
2022-12-03T22:01:24.305Z,100312.13
2022-12-03T22:03:51.545Z,100301.06
2022-12-03T22:06:18.791Z,100309.59
2022-12-03T22:08:46.234Z,100305.34
2022-12-03T22:11:31.042Z,100312.19
2022-12-03T22:13:58.066Z,100297.72
2022-12-03T22:16:24.805Z,100313.03
2022-12-03T22:18:51.511Z,100314.66
2022-12-03T22:21:20.319Z,100310.41
2022-12-03T22:23:47.191Z,100304.50
2022-12-03T22:26:17.107Z,100307.03
2022-12-03T22:28:45.073Z,100311.31
2022-12-03T22:31:12.384Z,100298.59
2022-12-03T22:33:39.593Z,100309.66
2022-12-03T22:36:20.067Z,100310.47
2022-12-03T22:38:48.783Z,100314.75
2022-12-03T22:41:15.904Z,100301.13
2022-12-03T22:43:43.233Z,100301.16
2022-12-03T22:46:12.894Z,100301.97
2022-12-03T22:48:41.244Z,100302.81
2022-12-03T22:51:20.432Z,100295.19
2022-12-03T22:53:47.632Z,100288.31
2022-12-03T22:56:14.782Z,100285.00
2022-12-03T22:58:41.567Z,100271.28
2022-12-03T23:01:08.797Z,100280.63
2022-12-03T23:03:36.699Z,100273.03
2022-12-03T23:06:10.759Z,100264.56
2022-12-03T23:08:37.849Z,100259.38
2022-12-03T23:11:04.591Z,100252.59
2022-12-03T23:13:31.447Z,100261.97
2022-12-03T23:15:58.504Z,100254.31
2022-12-03T23:18:25.353Z,100266.25
2022-12-03T23:20:55.520Z,100273.06
2022-12-03T23:23:23.992Z,100273.06
2022-12-03T23:26:01.270Z,100278.16
2022-12-03T23:28:29.906Z,100272.28
2022-12-03T23:30:57.326Z,100285.88
2022-12-03T23:33:25.103Z,100279.03
2022-12-03T23:35:51.968Z,100254.47
2022-12-03T23:38:18.705Z,100251.88
2022-12-03T23:40:48.290Z,100256.13
2022-12-03T23:43:15.944Z,100253.50
2022-12-03T23:45:42.662Z,100251.78
2022-12-03T23:48:09.547Z,100258.63
2022-12-03T23:50:39.674Z,100262.91
2022-12-03T23:53:06.406Z,100259.41
2022-12-03T23:55:33.748Z,100272.25
2022-12-03T23:58:00.544Z,100274.84
